Time;durP1;ratioP1;P1;durP2;ratioP2;P2;SDS_P1;SDS_P2;PMS_P1;PMS_P2;Temp;Humidity;BMP_temperature;BMP_pressure;BME280_temperature;BME280_humidity;BME280_pressure;Samples;Min_cycle;Max_cycle;Signal;HPM_P1;HPM_P2
2024/04/16 00:01:32;;;;;;;1.52;0.43;;;;;;;7.75;59.36;95876.19;5145038;27;20009;-75
2024/04/16 00:04:01;;;;;;;1.88;0.30;;;;;;;7.79;59.43;95865.25;5144934;27;20016;-75
2024/04/16 00:06:28;;;;;;;3.83;0.47;;;;;;;7.83;59.22;95858.72;5145015;27;20385;-74
2024/04/16 00:08:58;;;;;;;3.33;0.55;;;;;;;7.87;59.36;95856.56;5145181;27;20009;-75
2024/04/16 00:11:27;;;;;;;3.00;0.63;;;;;;;7.90;59.56;95856.19;5145064;27;20009;-75
2024/04/16 00:13:56;;;;;;;1.67;0.50;;;;;;;7.93;59.52;95852.41;5144596;27;20346;-75
2024/04/16 00:16:23;;;;;;;1.15;0.50;;;;;;;7.97;59.73;95841.47;5144065;27;20016;-75
2024/04/16 00:18:53;;;;;;;2.30;0.40;;;;;;;7.98;59.45;95837.91;5144148;27;20013;-75
2024/04/16 00:21:19;;;;;;;1.13;0.40;;;;;;;7.97;59.24;95843.28;5144179;27;20009;-74
2024/04/16 00:23:49;;;;;;;2.33;0.30;;;;;;;7.91;59.79;95846.59;5144218;27;20346;-75
2024/04/16 00:26:15;;;;;;;2.10;0.40;;;;;;;7.89;60.04;95844.19;5144055;27;20016;-75
2024/04/16 00:28:47;;;;;;;1.63;0.50;;;;;;;7.88;60.41;95841.78;5144410;27;20361;-75
2024/04/16 00:31:14;;;;;;;3.30;0.40;;;;;;;7.88;60.41;95847.78;5144654;27;20009;-75
2024/04/16 00:33:43;;;;;;;2.78;0.45;;;;;;;7.92;60.16;95837.84;5143994;27;20014;-75
2024/04/16 00:36:10;;;;;;;1.13;0.40;;;;;;;7.95;60.18;95834.84;5144288;27;20077;-75
2024/04/16 00:38:40;;;;;;;1.08;0.50;;;;;;;7.95;60.38;95851.25;5144349;27;20005;-75
2024/04/16 00:41:06;;;;;;;4.32;0.52;;;;;;;7.96;60.12;95837.28;5144280;27;20010;-75
2024/04/16 00:43:36;;;;;;;1.98;0.73;;;;;;;7.98;60.13;95832.72;5143951;27;20016;-75
2024/04/16 00:46:06;;;;;;;0.63;0.17;;;;;;;8.02;60.02;95831.34;5143761;27;20005;-75
2024/04/16 00:48:35;;;;;;;0.52;0.40;;;;;;;8.04;60.20;95824.16;5144177;27;20005;-75
2024/04/16 00:51:02;;;;;;;1.95;0.43;;;;;;;8.05;59.67;95822.38;5144460;27;20005;-75
2024/04/16 00:53:32;;;;;;;2.20;0.68;;;;;;;8.05;59.68;95801.59;5143911;27;20016;-75
2024/04/16 00:55:59;;;;;;;0.50;0.20;;;;;;;8.04;59.86;95825.94;5143638;27;20005;-75
2024/04/16 00:58:29;;;;;;;1.27;0.30;;;;;;;8.04;59.75;95828.56;5143489;27;20085;-74
2024/04/16 01:00:56;;;;;;;1.77;0.60;;;;;;;7.99;59.67;95807.53;5143702;27;20039;-74
2024/04/16 01:03:28;;;;;;;1.17;0.40;;;;;;;7.96;59.80;95808.72;5146852;27;20005;-75
2024/04/16 01:05:55;;;;;;;4.07;0.70;;;;;;;7.97;59.74;95799.91;5146641;27;20440;-75
2024/04/16 01:08:24;;;;;;;1.02;0.30;;;;;;;7.98;59.29;95795.53;5146917;27;20017;-75
2024/04/16 01:10:51;;;;;;;3.50;0.50;;;;;;;7.92;59.48;95796.28;5147129;27;20016;-75
2024/04/16 01:13:20;;;;;;;3.67;0.30;;;;;;;7.86;59.58;95792.63;5147302;27;20006;-74
2024/04/16 01:15:47;;;;;;;1.17;0.43;;;;;;;7.84;59.75;95805.78;5146809;27;20016;-75
2024/04/16 01:18:16;;;;;;;1.52;0.40;;;;;;;7.83;59.45;95788.59;5146899;27;20005;-75
2024/04/16 01:20:46;;;;;;;11.85;2.10;;;;;;;7.80;59.85;95777.78;5147320;27;20005;-75
2024/04/16 01:23:18;;;;;;;2.22;0.57;;;;;;;7.78;59.90;95788.38;5146971;27;20058;-75
2024/04/16 01:25:45;;;;;;;1.55;0.40;;;;;;;7.73;59.48;95787.28;5146652;27;20016;-75
2024/04/16 01:28:14;;;;;;;1.02;0.50;;;;;;;7.68;60.37;95784.44;5147099;27;20016;-75
2024/04/16 01:30:41;;;;;;;1.75;0.47;;;;;;;7.64;60.03;95791.78;5146739;27;20017;-75
2024/04/16 01:33:10;;;;;;;2.90;0.63;;;;;;;7.61;60.14;95769.59;5146774;27;20016;-75
2024/04/16 01:35:37;;;;;;;2.40;0.50;;;;;;;7.67;60.31;95755.06;5146978;27;20401;-75
2024/04/16 01:38:07;;;;;;;3.13;0.57;;;;;;;7.67;60.33;95752.47;5147120;27;20005;-75
2024/04/16 01:40:36;;;;;;;4.30;0.70;;;;;;;7.66;60.69;95778.63;5148715;27;20349;-74
2024/04/16 01:43:06;;;;;;;2.08;0.50;;;;;;;7.62;60.18;95788.56;5146784;27;20387;-75
2024/04/16 01:45:34;;;;;;;1.17;0.70;;;;;;;7.53;60.42;95792.28;5146024;27;20055;-75
2024/04/16 01:48:03;;;;;;;3.90;0.85;;;;;;;7.47;60.36;95793.00;5146398;27;20010;-75
2024/04/16 01:50:30;;;;;;;1.42;0.50;;;;;;;7.48;61.00;95753.06;5146191;27;20024;-75
2024/04/16 01:52:59;;;;;;;1.75;0.60;;;;;;;7.51;60.81;95768.28;5146313;27;20016;-75
2024/04/16 01:55:26;;;;;;;1.95;0.52;;;;;;;7.50;61.09;95754.50;5146266;27;20076;-75
2024/04/16 01:57:58;;;;;;;1.65;0.30;;;;;;;7.46;61.36;95765.44;5146179;27;20383;-75
2024/04/16 02:00:25;;;;;;;2.97;0.30;;;;;;;7.42;60.99;95770.97;5146356;27;20006;-75
2024/04/16 02:02:55;;;;;;;2.55;0.50;;;;;;;7.38;61.27;95782.72;5146399;27;20009;-75
2024/04/16 02:05:22;;;;;;;4.32;0.88;;;;;;;7.31;61.06;95781.84;5145908;27;20029;-75
2024/04/16 02:07:51;;;;;;;2.45;0.57;;;;;;;7.28;61.42;95771.00;5146262;27;20458;-75
2024/04/16 02:10:18;;;;;;;3.13;0.47;;;;;;;7.21;61.66;95755.34;5146204;27;20023;-75
2024/04/16 02:12:48;;;;;;;2.88;0.60;;;;;;;7.18;61.82;95766.09;5146111;27;20012;-75
2024/04/16 02:15:17;;;;;;;1.95;0.50;;;;;;;7.16;62.10;95765.47;5146298;27;20374;-75
2024/04/16 02:17:46;;;;;;;1.95;0.52;;;;;;;7.17;61.99;95761.88;5155605;27;20008;-75
2024/04/16 02:20:13;;;;;;;0.47;0.22;;;;;;;7.23;62.20;95764.56;5163600;27;20020;-75
2024/04/16 02:22:42;;;;;;;2.50;0.47;;;;;;;7.29;62.19;95744.88;5159141;27;20005;-75
2024/04/16 02:25:11;;;;;;;4.32;0.32;;;;;;;7.37;61.98;95747.38;5146679;27;20005;-74
2024/04/16 02:27:40;;;;;;;2.22;0.40;;;;;;;7.42;62.08;95760.59;5146156;27;20020;-74
2024/04/16 02:30:07;;;;;;;1.17;0.40;;;;;;;7.48;61.92;95753.06;5145855;27;20009;-75
2024/04/16 02:32:39;;;;;;;4.72;0.60;;;;;;;7.50;61.81;95731.16;5146188;27;20058;-75
2024/04/16 02:35:06;;;;;;;0.85;0.50;;;;;;;7.53;61.93;95763.72;5146494;27;20414;-75
2024/04/16 02:37:35;;;;;;;4.32;0.50;;;;;;;7.55;62.01;95764.34;5146143;27;20005;-75
2024/04/16 02:40:02;;;;;;;1.98;0.50;;;;;;;7.55;61.97;95767.75;5146531;27;20530;-75
2024/04/16 02:42:32;;;;;;;3.42;0.60;;;;;;;7.56;62.32;95768.53;5146173;27;20005;-75
2024/04/16 02:44:58;;;;;;;3.65;1.65;;;;;;;7.57;62.18;95764.97;5146489;27;20005;-75
2024/04/16 02:47:28;;;;;;;1.38;0.38;;;;;;;7.55;61.94;95751.38;5146134;27;20465;-75
2024/04/16 02:49:57;;;;;;;1.48;0.40;;;;;;;7.51;62.42;95753.50;5147400;27;20649;-74
2024/04/16 02:52:26;;;;;;;1.10;0.57;;;;;;;7.47;62.29;95751.47;5146477;27;20023;-75
2024/04/16 02:54:55;;;;;;;3.33;0.70;;;;;;;7.46;62.56;95750.69;5146233;27;20017;-74
2024/04/16 02:57:25;;;;;;;2.20;0.60;;;;;;;7.47;62.62;95751.47;5146241;27;20020;-75
2024/04/16 02:59:51;;;;;;;2.92;0.80;;;;;;;7.45;62.45;95737.88;5145929;27;20019;-75
2024/04/16 03:02:21;;;;;;;1.75;0.68;;;;;;;7.43;62.65;95746.66;5146036;27;20005;-75
2024/04/16 03:04:47;;;;;;;1.98;0.82;;;;;;;7.40;63.14;95757.38;5145966;27;20005;-75
2024/04/16 03:07:19;;;;;;;1.52;0.80;;;;;;;7.37;63.44;95770.75;5150328;27;20009;-75
2024/04/16 03:09:46;;;;;;;2.30;0.90;;;;;;;7.33;63.17;95756.50;5162987;27;20067;-74
2024/04/16 03:12:16;;;;;;;3.55;1.15;;;;;;;7.34;63.61;95742.53;5165967;27;20020;-75
2024/04/16 03:14:42;;;;;;;5.13;1.55;;;;;;;7.31;63.09;95742.91;5164717;27;20005;-75
2024/04/16 03:17:12;;;;;;;1.77;0.65;;;;;;;7.29;63.47;95739.69;5146895;27;20013;-75
2024/04/16 03:19:38;;;;;;;2.72;0.60;;;;;;;7.31;63.04;95753.28;5146074;27;20020;-75
2024/04/16 03:22:08;;;;;;;2.15;0.45;;;;;;;7.26;63.22;95750.44;5146234;27;20013;-75
2024/04/16 03:24:37;;;;;;;1.95;0.52;;;;;;;7.23;64.04;95730.03;5145305;27;20055;-75
2024/04/16 03:27:07;;;;;;;1.98;0.65;;;;;;;7.18;63.24;95746.16;5145221;27;20488;-75
2024/04/16 03:29:33;;;;;;;1.88;0.50;;;;;;;7.17;63.64;95735.97;5145481;27;20009;-75
2024/04/16 03:32:03;;;;;;;2.13;0.63;;;;;;;7.15;63.53;95732.75;5145544;27;20485;-74
2024/04/16 03:34:30;;;;;;;2.30;0.47;;;;;;;7.13;63.74;95729.56;5145453;27;20015;-75
2024/04/16 03:37:00;;;;;;;2.42;0.73;;;;;;;7.13;63.83;95729.56;5145187;27;20059;-75
2024/04/16 03:39:30;;;;;;;2.45;0.50;;;;;;;7.12;64.00;95720.16;5145889;27;20488;-75
2024/04/16 03:42:01;;;;;;;2.08;0.70;;;;;;;7.19;64.82;95732.22;5145541;27;20021;-75
2024/04/16 03:44:28;;;;;;;4.18;1.48;;;;;;;7.30;64.85;95725.72;5145498;27;20492;-75
2024/04/16 03:46:59;;;;;;;1.38;0.77;;;;;;;7.38;64.72;95746.38;5145069;27;20005;-75
2024/04/16 03:49:28;;;;;;;4.07;1.63;;;;;;;7.45;64.12;95750.84;5145577;27;20012;-75
2024/04/16 03:51:55;;;;;;;1.98;0.70;;;;;;;7.41;63.46;95753.81;5145511;27;20565;-75
2024/04/16 03:54:24;;;;;;;2.92;0.80;;;;;;;7.41;63.62;95740.84;5145202;27;20016;-75
2024/04/16 03:56:51;;;;;;;2.03;0.65;;;;;;;7.38;63.61;95748.19;5144682;27;20009;-75
2024/04/16 03:59:37;;;;;;;2.97;0.60;;;;;;;7.33;63.35;95751.31;5144790;27;20012;-76
2024/04/16 04:02:04;;;;;;;3.10;0.95;;;;;;;7.30;63.40;95754.25;5145200;27;20480;-75
2024/04/16 04:04:36;;;;;;;4.40;0.70;;;;;;;7.34;63.52;95747.72;5145147;27;20005;-75
2024/04/16 04:07:03;;;;;;;3.20;0.90;;;;;;;7.39;63.44;95758.38;5144576;27;20009;-74
2024/04/16 04:09:33;;;;;;;2.05;0.80;;;;;;;7.39;63.21;95750.59;5144968;27;20357;-75
2024/04/16 04:12:02;;;;;;;2.72;0.50;;;;;;;7.33;62.50;95748.72;5145013;27;20468;-75
2024/04/16 04:14:31;;;;;;;1.75;0.50;;;;;;;7.22;63.21;95764.75;5144865;27;20005;-75
2024/04/16 04:17:01;;;;;;;1.98;0.63;;;;;;;7.17;63.10;95762.72;5144540;27;20010;-74
2024/04/16 04:19:28;;;;;;;3.03;1.35;;;;;;;7.16;63.11;95768.06;5144883;27;20005;-74
2024/04/16 04:21:58;;;;;;;3.05;0.70;;;;;;;7.13;62.56;95758.06;5145763;27;20006;-75
2024/04/16 04:24:24;;;;;;;3.30;0.60;;;;;;;7.11;62.71;95765.22;5146296;27;20009;-75
2024/04/16 04:27:03;;;;;;;2.10;0.50;;;;;;;7.07;62.45;95767.38;5145490;27;20005;-75
2024/04/16 04:29:35;;;;;;;5.10;1.00;;;;;;;7.01;62.17;95778.44;5144817;27;20013;-75
2024/04/16 04:32:02;;;;;;;1.80;0.50;;;;;;;6.96;62.21;95775.59;5145443;27;20006;-75
2024/04/16 04:34:31;;;;;;;1.52;0.60;;;;;;;6.88;61.77;95783.47;5145455;27;20009;-75
2024/04/16 04:36:58;;;;;;;2.65;0.60;;;;;;;6.80;62.32;95781.78;5146219;27;20489;-75
2024/04/16 04:39:27;;;;;;;2.80;0.70;;;;;;;6.78;62.14;95779.34;5150045;27;20016;-75
2024/04/16 04:41:54;;;;;;;5.68;1.02;;;;;;;6.78;62.62;95783.75;5148267;27;20017;-75
2024/04/16 04:44:24;;;;;;;3.75;0.68;;;;;;;6.79;62.58;95777.56;5148117;27;20016;-74
2024/04/16 04:46:53;;;;;;;2.25;0.80;;;;;;;6.79;62.78;95775.75;5147753;27;20016;-75
2024/04/16 04:49:22;;;;;;;2.03;0.80;;;;;;;6.74;62.94;95783.28;5148074;27;20013;-75
2024/04/16 04:51:49;;;;;;;3.45;1.67;;;;;;;6.71;63.16;95791.41;5148491;27;20081;-75
2024/04/16 04:54:18;;;;;;;8.20;3.75;;;;;;;6.70;63.26;95792.38;5148973;27;20005;-75
2024/04/16 04:56:45;;;;;;;2.00;1.30;;;;;;;6.75;63.35;95794.44;5147954;27;20005;-75
2024/04/16 04:59:14;;;;;;;2.90;0.82;;;;;;;6.77;63.57;95780.31;5147590;27;20355;-75
2024/04/16 05:01:41;;;;;;;2.03;0.93;;;;;;;6.77;63.64;95788.09;5147774;27;20005;-75
2024/04/16 05:04:13;;;;;;;3.97;1.45;;;;;;;6.78;63.73;95791.50;5148224;27;20024;-75
2024/04/16 05:06:40;;;;;;;4.68;1.05;;;;;;;6.80;63.92;95781.78;5148043;27;20005;-75
2024/04/16 05:09:10;;;;;;;2.72;0.90;;;;;;;6.84;63.90;95783.00;5148160;27;20005;-75
2024/04/16 05:11:36;;;;;;;2.47;0.70;;;;;;;6.89;63.90;95790.28;5147755;27;20005;-74
2024/04/16 05:14:07;;;;;;;2.08;0.70;;;;;;;6.89;63.70;95777.31;5147639;27;20343;-74
2024/04/16 05:16:34;;;;;;;3.70;1.02;;;;;;;6.89;63.68;95788.47;5147494;27;20020;-75
2024/04/16 05:19:03;;;;;;;2.95;0.70;;;;;;;6.86;63.62;95781.03;5147599;27;20021;-75
2024/04/16 05:21:33;;;;;;;2.35;0.77;;;;;;;6.89;63.90;95787.69;5147923;27;20073;-75
2024/04/16 05:24:02;;;;;;;3.17;0.85;;;;;;;6.87;63.92;95795.63;5148040;27;20020;-74
2024/04/16 05:26:29;;;;;;;1.70;0.52;;;;;;;6.87;63.75;95800.00;5147118;27;20021;-75
2024/04/16 05:28:58;;;;;;;3.42;1.00;;;;;;;6.88;63.86;95806.78;5151202;27;20492;-76
2024/04/16 05:31:25;;;;;;;1.50;0.60;;;;;;;6.91;63.56;95803.84;5164693;27;20001;-76
2024/04/16 05:33:55;;;;;;;4.72;1.40;;;;;;;6.93;63.70;95812.25;5164359;27;20013;-75
2024/04/16 05:36:21;;;;;;;3.72;0.82;;;;;;;6.92;63.79;95816.63;5155224;27;20005;-77
2024/04/16 05:38:53;;;;;;;2.50;0.50;;;;;;;6.94;63.90;95819.84;5147985;27;20016;-75
2024/04/16 05:41:20;;;;;;;2.17;1.30;;;;;;;6.98;63.58;95825.50;5147885;27;20016;-75
2024/04/16 05:43:51;;;;;;;1.50;0.60;;;;;;;6.98;63.97;95825.50;5148077;27;20001;-75
2024/04/16 05:46:18;;;;;;;3.38;0.85;;;;;;;6.94;63.33;95835.41;5147766;27;20009;-75
2024/04/16 05:48:48;;;;;;;1.35;0.70;;;;;;;6.92;63.47;95836.56;5157729;27;20012;-75
2024/04/16 05:51:15;;;;;;;3.97;0.77;;;;;;;6.94;63.53;95825.03;5161465;27;20008;-75
2024/04/16 05:53:44;;;;;;;2.50;0.80;;;;;;;6.99;63.54;95822.72;5155766;27;20009;-75
2024/04/16 05:56:14;;;;;;;1.58;0.75;;;;;;;7.00;63.61;95823.53;5147211;27;20015;-75
2024/04/16 05:58:43;;;;;;;3.65;0.75;;;;;;;7.00;63.57;95819.16;5147528;27;20009;-75
2024/04/16 06:01:10;;;;;;;3.47;1.10;;;;;;;7.03;63.60;95817.97;5147555;27;20145;-76
2024/04/16 06:03:39;;;;;;;2.58;0.80;;;;;;;7.06;63.46;95833.16;5147537;27;20020;-75
2024/04/16 06:06:06;;;;;;;1.92;0.57;;;;;;;7.09;63.55;95827.66;5146867;27;20018;-75
2024/04/16 06:08:35;;;;;;;2.10;0.50;;;;;;;7.14;63.37;95825.31;5147784;27;20009;-75
2024/04/16 06:11:02;;;;;;;4.15;1.10;;;;;;;7.19;62.99;95832.53;5148695;27;20009;-75
2024/04/16 06:13:34;;;;;;;4.75;1.10;;;;;;;7.20;63.39;95837.56;5148590;27;20020;-75
2024/04/16 06:16:06;;;;;;;2.72;0.77;;;;;;;7.26;63.06;95832.63;5147678;27;20081;-75
2024/04/16 06:18:35;;;;;;;2.92;0.90;;;;;;;7.29;62.57;95827.09;5148009;27;20012;-75
2024/04/16 06:21:02;;;;;;;1.45;0.90;;;;;;;7.34;62.58;95835.16;5148404;27;20016;-75
2024/04/16 06:23:31;;;;;;;2.55;0.70;;;;;;;7.40;62.04;95829.25;5148023;27;20373;-75
2024/04/16 06:25:58;;;;;;;4.22;0.82;;;;;;;7.45;61.62;95839.88;5147243;27;20449;-75
2024/04/16 06:28:27;;;;;;;5.57;0.95;;;;;;;7.51;61.61;95843.53;5148557;27;20009;-75
2024/04/16 06:30:57;;;;;;;6.00;0.90;;;;;;;7.55;60.88;95837.00;5149053;27;20406;-75
2024/04/16 06:33:27;;;;;;;5.95;1.00;;;;;;;7.57;60.92;95838.44;5148340;27;20085;-75
2024/04/16 06:35:54;;;;;;;4.80;1.20;;;;;;;7.60;61.08;95832.06;5147074;27;20020;-75
2024/04/16 06:38:24;;;;;;;7.32;0.82;;;;;;;7.64;60.58;95839.31;5147357;27;20385;-75
2024/04/16 06:40:51;;;;;;;9.43;1.15;;;;;;;7.62;60.00;95846.47;5147649;27;20009;-75
2024/04/16 06:43:20;;;;;;;5.32;1.23;;;;;;;7.57;59.79;95841.03;5147449;27;20023;-75
2024/04/16 06:45:50;;;;;;;2.25;1.00;;;;;;;7.59;60.30;95846.03;5147051;27;20037;-75
2024/04/16 06:48:19;;;;;;;3.58;0.88;;;;;;;7.65;60.03;95834.91;5146925;27;20484;-75
2024/04/16 06:50:49;;;;;;;7.18;1.67;;;;;;;7.73;59.50;95834.81;5147450;27;20034;-75
2024/04/16 06:53:16;;;;;;;3.65;0.63;;;;;;;7.78;59.39;95832.50;5147519;27;20012;-75
2024/04/16 06:55:45;;;;;;;4.22;0.90;;;;;;;7.86;59.25;95823.78;5146527;27;20350;-75
2024/04/16 06:58:12;;;;;;;2.63;0.73;;;;;;;7.93;59.27;95831.63;5147556;27;20346;-75
2024/04/16 07:00:41;;;;;;;6.68;1.67;;;;;;;7.95;58.24;95824.47;5146018;27;20084;-75
2024/04/16 07:03:08;;;;;;;2.47;1.00;;;;;;;8.00;58.38;95809.13;5147415;27;20017;-75
2024/04/16 07:05:41;;;;;;;5.05;1.42;;;;;;;8.15;58.61;95822.88;5146397;27;20020;-75
2024/04/16 07:08:08;;;;;;;;;;;;;;;8.34;58.12;95816.25;5147203;27;20024;-75
2024/04/16 07:10:37;;;;;;;3.47;0.93;;;;;;;8.43;57.90;95802.16;5146047;27;19929;-76
2024/04/16 07:13:04;;;;;;;6.13;1.27;;;;;;;8.51;57.61;95796.03;5146662;27;20005;-75
2024/04/16 07:15:36;;;;;;;5.90;1.38;;;;;;;8.65;57.03;95807.31;5145915;27;20054;-75
2024/04/16 07:18:04;;;;;;;3.88;1.38;;;;;;;8.73;56.28;95796.00;5146645;27;20418;-75
2024/04/16 07:20:34;;;;;;;7.90;1.40;;;;;;;8.75;56.18;95807.00;5146205;27;20009;-75
2024/04/16 07:23:07;;;;;;;1.50;0.85;;;;;;;8.77;55.41;95789.44;5146265;27;20021;-75
2024/04/16 07:25:37;;;;;;;3.30;0.70;;;;;;;8.81;56.03;95803.63;5145420;27;20343;-75
2024/04/16 07:28:04;;;;;;;3.17;0.70;;;;;;;8.90;55.74;95805.13;5146672;27;20005;-75
2024/04/16 07:30:34;;;;;;;3.25;0.90;;;;;;;9.00;55.64;95799.56;5145828;27;20080;-75
2024/04/16 07:33:01;;;;;;;5.65;1.20;;;;;;;9.19;55.24;95798.06;5156727;27;20009;-75
2024/04/16 07:35:31;;;;;;;6.65;1.88;;;;;;;9.26;54.73;95789.28;5155500;27;20080;-75
2024/04/16 07:37:58;;;;;;;3.88;1.48;;;;;;;9.37;54.63;95790.53;5158920;27;20005;-75
2024/04/16 07:40:30;;;;;;;3.10;1.30;;;;;;;9.49;54.39;95786.38;5158422;27;20009;-75
2024/04/16 07:42:57;;;;;;;7.72;1.10;;;;;;;9.64;53.92;95790.63;5157955;27;20005;-75
2024/04/16 07:45:26;;;;;;;4.20;1.48;;;;;;;9.74;53.11;95800.69;5148694;27;20005;-75
2024/04/16 07:47:53;;;;;;;5.30;0.95;;;;;;;9.86;53.23;95783.47;5148029;27;20026;-75
2024/04/16 07:50:22;;;;;;;3.72;1.02;;;;;;;9.97;52.95;95774.28;5146554;27;20005;-75
2024/04/16 07:52:49;;;;;;;5.85;1.10;;;;;;;10.14;52.93;95783.34;5145407;27;20005;-75
2024/04/16 07:55:18;;;;;;;5.60;1.13;;;;;;;10.41;52.54;95780.78;5145971;27;20054;-75
2024/04/16 07:57:48;;;;;;;2.13;0.80;;;;;;;10.71;51.01;95775.94;5145976;27;20021;-75
2024/04/16 08:00:17;;;;;;;3.03;0.90;;;;;;;10.95;51.17;95790.16;5145179;27;20010;-75
2024/04/16 08:02:44;;;;;;;4.78;1.05;;;;;;;11.14;50.47;95784.09;5145681;27;20002;-75
2024/04/16 08:05:13;;;;;;;2.47;0.77;;;;;;;11.35;50.30;95792.69;5145130;27;20015;-75
2024/04/16 08:07:40;;;;;;;3.03;0.70;;;;;;;11.51;49.70;95779.16;5144797;27;20025;-75
2024/04/16 08:10:10;;;;;;;5.72;1.27;;;;;;;11.70;49.33;95784.50;5160611;27;20041;-76
2024/04/16 08:12:36;;;;;;;3.58;0.85;;;;;;;11.82;48.21;95782.03;5164301;27;20005;-76
2024/04/16 08:15:09;;;;;;;3.35;0.82;;;;;;;11.76;47.45;95775.81;5164525;27;20009;-75
2024/04/16 08:17:35;;;;;;;;;;;;;;;11.89;47.82;95757.47;5152300;27;20341;-75
2024/04/16 08:20:05;;;;;;;7.72;1.38;;;;;;;12.08;48.40;95757.56;5148331;27;19929;-76
2024/04/16 08:22:36;;;;;;;3.30;0.77;;;;;;;12.28;47.40;95755.59;5148446;27;20017;-75
2024/04/16 08:25:06;;;;;;;5.88;0.85;;;;;;;12.26;46.66;95741.94;5147841;27;20013;-76
2024/04/16 08:27:33;;;;;;;4.20;1.25;;;;;;;12.18;46.26;95733.56;5147959;27;20005;-76
2024/04/16 08:30:02;;;;;;;3.25;0.93;;;;;;;12.18;46.16;95739.63;5148256;27;20016;-76
2024/04/16 08:32:32;;;;;;;6.45;0.88;;;;;;;12.35;45.96;95750.31;5148413;27;20052;-75
2024/04/16 08:35:01;;;;;;;5.70;0.88;;;;;;;12.52;45.45;95747.97;5148372;27;20016;-76
2024/04/16 08:37:30;;;;;;;7.82;1.25;;;;;;;12.60;45.15;95733.84;5148345;27;20482;-76
2024/04/16 08:39:59;;;;;;;7.13;1.30;;;;;;;12.70;45.14;95732.34;5149294;27;20084;-76
2024/04/16 08:42:26;;;;;;;5.15;0.82;;;;;;;12.83;44.54;95730.59;5148026;27;20536;-76
2024/04/16 08:44:57;;;;;;;3.33;0.80;;;;;;;12.96;43.36;95735.69;5147856;27;20020;-75
2024/04/16 08:47:24;;;;;;;3.78;0.85;;;;;;;12.98;43.25;95754.59;5147520;27;20117;-76
2024/04/16 08:49:57;;;;;;;5.63;0.80;;;;;;;13.05;42.07;95771.03;5148276;27;20390;-76
2024/04/16 08:52:26;;;;;;;2.25;0.60;;;;;;;13.15;42.28;95763.47;5148147;27;20005;-75
2024/04/16 08:54:57;;;;;;;2.97;0.75;;;;;;;13.13;41.00;95760.28;5148459;27;20016;-75
2024/04/16 08:57:27;;;;;;;4.03;0.77;;;;;;;13.06;40.58;95764.78;5148207;27;20020;-76
2024/04/16 08:59:56;;;;;;;0.73;0.40;;;;;;;13.03;40.16;95749.53;5148147;27;20508;-76
2024/04/16 09:02:29;;;;;;;3.58;0.77;;;;;;;12.87;39.30;95757.94;5147736;27;20350;-76
2024/04/16 09:04:59;;;;;;;5.93;0.70;;;;;;;12.78;39.46;95745.13;5161229;27;20058;-75
2024/04/16 09:07:31;;;;;;;4.45;1.25;;;;;;;12.80;40.09;95741.50;5164885;27;20016;-76
2024/04/16 09:09:57;;;;;;;4.93;1.00;;;;;;;12.75;40.51;95750.78;5166052;27;20050;-76
2024/04/16 09:12:27;;;;;;;4.38;0.47;;;;;;;12.78;40.71;95744.31;5165519;27;20009;-76
2024/04/16 09:14:53;;;;;;;2.60;0.95;;;;;;;12.84;39.93;95738.22;5233411;22;20019;-79
2024/04/16 09:17:23;;;;;;;2.78;0.70;;;;;;;12.81;39.75;95769.25;5179500;27;20009;-78
2024/04/16 09:19:50;;;;;;;3.05;0.70;;;;;;;12.76;40.09;95731.44;5180479;27;20009;-79
2024/04/16 09:22:24;;;;;;;2.38;0.68;;;;;;;12.75;39.51;95742.16;5178935;27;20344;-78
2024/04/16 09:24:51;;;;;;;4.22;1.05;;;;;;;12.66;40.13;95761.75;5179485;27;20005;-78
2024/04/16 09:27:21;;;;;;;2.38;0.82;;;;;;;12.59;39.80;95746.09;5179932;27;20005;-79
2024/04/16 09:29:48;;;;;;;7.22;1.48;;;;;;;12.55;40.33;95752.78;5180274;27;20020;-79
2024/04/16 09:32:19;;;;;;;4.30;0.82;;;;;;;12.35;39.88;95747.72;5180021;27;20009;-79
2024/04/16 09:34:46;;;;;;;5.65;0.95;;;;;;;12.22;39.89;95735.53;5180023;27;20012;-79
2024/04/16 09:37:23;;;;;;;6.15;0.70;;;;;;;12.23;39.90;95734.53;5180092;27;20084;-79
2024/04/16 09:39:52;;;;;;;2.13;0.95;;;;;;;12.19;39.89;95720.28;5179275;27;20019;-79
2024/04/16 09:42:23;;;;;;;2.90;0.90;;;;;;;12.06;39.96;95734.25;5179668;27;20079;-79
2024/04/16 09:44:51;;;;;;;3.88;0.68;;;;;;;11.93;40.54;95750.03;5179932;27;20015;-79
2024/04/16 09:47:21;;;;;;;2.45;0.43;;;;;;;11.75;40.61;95719.34;5179341;27;20005;-78
2024/04/16 09:49:50;;;;;;;5.88;1.10;;;;;;;11.77;40.76;95717.34;5180480;27;20010;-78
2024/04/16 09:52:42;;;;;;;5.25;0.73;;;;;;;11.94;40.16;95721.06;5179672;27;20079;-78
2024/04/16 09:55:10;;;;;;;1.80;0.60;;;;;;;12.01;40.68;95725.47;5179434;27;20558;-79
2024/04/16 09:57:41;;;;;;;3.15;0.50;;;;;;;12.05;40.26;95719.59;5179151;27;20011;-79
2024/04/16 10:00:10;;;;;;;1.17;0.50;;;;;;;12.05;40.51;95714.38;5179345;27;20004;-78
2024/04/16 10:02:41;;;;;;;4.50;0.55;;;;;;;12.09;40.73;95733.84;5179465;27;20019;-77
2024/04/16 10:05:10;;;;;;;2.78;0.43;;;;;;;12.04;40.29;95725.03;5179302;27;20041;-79
2024/04/16 10:07:43;;;;;;;4.38;1.05;;;;;;;11.97;40.54;95712.00;5178711;27;20357;-79
2024/04/16 10:10:11;;;;;;;2.03;0.73;;;;;;;11.90;40.89;95709.44;5179402;27;20080;-78
2024/04/16 10:12:40;;;;;;;2.65;0.60;;;;;;;11.74;40.93;95710.72;5201209;27;20008;-78
2024/04/16 10:15:08;;;;;;;5.43;0.93;;;;;;;11.60;40.65;95697.94;5200626;27;20008;-79
2024/04/16 10:17:51;;;;;;;3.90;0.70;;;;;;;11.46;40.74;95707.69;5196543;27;20004;-78
2024/04/16 10:20:20;;;;;;;3.40;0.90;;;;;;;11.43;41.74;95702.84;5183155;27;20008;-78
2024/04/16 10:22:57;;;;;;;3.55;0.55;;;;;;;11.38;42.04;95697.47;5182143;27;20384;-79
2024/04/16 10:25:28;;;;;;;6.28;0.80;;;;;;;11.29;41.72;95695.09;5179403;27;20016;-78
2024/04/16 10:28:00;;;;;;;3.05;1.05;;;;;;;11.21;42.48;95686.69;5179144;27;20408;-78
2024/04/16 10:30:28;;;;;;;3.20;0.52;;;;;;;11.25;42.54;95687.88;5179317;27;20005;-78
2024/04/16 10:32:58;;;;;;;2.00;0.60;;;;;;;11.42;42.47;95678.56;5178848;27;20342;-78
2024/04/16 10:35:27;;;;;;;2.75;0.60;;;;;;;11.63;42.53;95685.28;5197697;27;20020;-79
2024/04/16 10:37:59;;;;;;;1.45;0.45;;;;;;;11.69;41.95;95670.56;5200804;27;20012;-78
2024/04/16 10:40:27;;;;;;;;;;;;;;;11.75;41.77;95669.72;5183146;27;20574;-78
2024/04/16 10:42:58;;;;;;;4.85;1.13;;;;;;;11.69;41.91;95673.16;5179475;27;19956;-79
2024/04/16 10:45:25;;;;;;;3.67;1.08;;;;;;;11.55;41.96;95688.94;5178840;27;20056;-79
2024/04/16 10:47:55;;;;;;;2.30;0.45;;;;;;;11.45;42.29;95698.22;5178909;27;20468;-78
2024/04/16 10:50:21;;;;;;;1.73;0.60;;;;;;;11.39;43.11;95701.66;5178859;27;20020;-79
2024/04/16 10:52:51;;;;;;;2.58;0.50;;;;;;;11.37;44.08;95703.69;5178913;27;20072;-79
2024/04/16 10:55:20;;;;;;;1.77;0.63;;;;;;;11.25;45.19;95698.31;5178402;27;20468;-79
2024/04/16 10:57:51;;;;;;;2.72;0.40;;;;;;;11.13;45.54;95696.38;5178778;27;20083;-78
2024/04/16 11:00:19;;;;;;;3.60;0.30;;;;;;;11.03;45.78;95693.38;5178965;27;20004;-79
2024/04/16 11:02:51;;;;;;;3.03;0.77;;;;;;;10.92;45.86;95715.69;5178825;27;20044;-78
2024/04/16 11:05:21;;;;;;;1.90;0.60;;;;;;;10.89;46.62;95712.72;5178584;27;20018;-79
2024/04/16 11:07:52;;;;;;;4.20;0.90;;;;;;;10.84;46.61;95710.69;5178266;27;20357;-78
2024/04/16 11:10:27;;;;;;;2.97;0.85;;;;;;;10.75;48.07;95726.78;5178489;27;20004;-80
2024/04/16 11:12:57;;;;;;;2.80;0.60;;;;;;;10.68;47.85;95722.38;5178428;27;20016;-78
2024/04/16 11:15:27;;;;;;;2.05;0.43;;;;;;;10.61;49.13;95721.59;5177801;27;20001;-80
2024/04/16 11:17:56;;;;;;;5.38;0.90;;;;;;;10.45;49.65;95740.25;5178410;27;20452;-79
2024/04/16 11:20:26;;;;;;;5.03;1.25;;;;;;;10.29;50.22;95736.25;5178146;27;20037;-79
2024/04/16 11:22:53;;;;;;;1.58;0.45;;;;;;;10.20;50.78;95740.84;5178218;27;20008;-79
2024/04/16 11:25:22;;;;;;;1.83;0.50;;;;;;;10.10;51.46;95743.03;5178043;27;20004;-79
2024/04/16 11:27:52;;;;;;;3.60;0.80;;;;;;;10.00;53.01;95753.84;5178330;27;20008;-79
2024/04/16 11:30:21;;;;;;;11.18;1.40;;;;;;;9.97;52.85;95746.44;5178466;27;20004;-79
2024/04/16 11:32:48;;;;;;;4.10;1.05;;;;;;;9.97;53.14;95756.06;5177976;27;20019;-79
2024/04/16 11:35:17;;;;;;;2.40;0.50;;;;;;;9.94;53.22;95748.63;5177914;27;20428;-79
2024/04/16 11:37:45;;;;;;;1.15;0.40;;;;;;;9.87;53.28;95757.25;5177771;27;20417;-79
2024/04/16 11:40:15;;;;;;;1.50;1.02;;;;;;;9.84;53.29;95744.63;5177855;27;20008;-79
2024/04/16 11:42:44;;;;;;;2.47;0.77;;;;;;;9.74;54.21;95740.78;5177973;27;20048;-78
2024/04/16 11:45:16;;;;;;;3.28;1.02;;;;;;;9.68;55.03;95731.97;5177551;27;20001;-79
2024/04/16 11:47:43;;;;;;;4.07;1.35;;;;;;;9.69;55.55;95730.97;5178043;27;20029;-79